createdAt,value
2023-03-15T06:02:57.959Z,4.30
2023-03-15T06:05:34.889Z,4.25
2023-03-15T06:08:04.865Z,4.17
2023-03-15T06:10:41.959Z,4.15
2023-03-15T06:13:12.005Z,4.12
2023-03-15T06:15:48.907Z,4.11
2023-03-15T06:18:27.936Z,4.12
2023-03-15T06:20:58.055Z,4.16
2023-03-15T06:23:34.976Z,4.22
2023-03-15T06:26:04.970Z,4.25
2023-03-15T06:28:41.996Z,4.31
2023-03-15T06:31:12.643Z,4.36
2023-03-15T06:33:51.906Z,4.43
2023-03-15T06:36:22.043Z,4.48
2023-03-15T06:39:00.942Z,4.53
2023-03-15T06:41:38.937Z,4.58
2023-03-15T06:44:09.160Z,4.65
2023-03-15T06:46:45.923Z,4.70
2023-03-15T06:49:18.584Z,4.80
2023-03-15T06:51:54.984Z,5.13
2023-03-15T06:54:25.191Z,5.83
2023-03-15T06:57:01.981Z,6.08
2023-03-15T06:59:39.016Z,6.66
2023-03-15T07:02:09.991Z,7.44
2023-03-15T07:04:50.983Z,8.16
2023-03-15T07:07:20.941Z,8.91
2023-03-15T07:09:50.916Z,9.71
2023-03-15T07:12:26.959Z,10.42
2023-03-15T07:14:56.994Z,11.07
2023-03-15T07:17:33.965Z,11.69
2023-03-15T07:20:08.287Z,12.21
2023-03-15T07:22:45.043Z,12.71
2023-03-15T07:25:14.993Z,13.22
2023-03-15T07:27:51.035Z,13.80
2023-03-15T07:30:22.154Z,14.37
2023-03-15T07:32:59.185Z,14.79
2023-03-15T07:35:38.051Z,15.29
2023-03-15T07:38:08.023Z,15.69
2023-03-15T07:40:45.063Z,16.08
2023-03-15T07:43:22.513Z,16.46
2023-03-15T07:45:52.990Z,16.90
2023-03-15T07:48:29.072Z,17.15
2023-03-15T07:51:01.816Z,17.20
2023-03-15T07:53:39.095Z,17.35
2023-03-15T07:56:16.050Z,17.53
2023-03-15T07:58:46.591Z,17.89
2023-03-15T08:01:23.083Z,18.08
2023-03-15T08:03:53.125Z,18.23
2023-03-15T08:06:32.120Z,18.56
2023-03-15T08:09:04.783Z,18.81
2023-03-15T08:11:42.146Z,19.05
2023-03-15T08:14:20.114Z,19.39
2023-03-15T08:16:50.152Z,19.70
2023-03-15T08:19:27.109Z,19.64
2023-03-15T08:22:06.062Z,19.32
2023-03-15T08:24:36.500Z,19.50
2023-03-15T08:27:14.055Z,19.79
2023-03-15T08:29:53.088Z,20.00
2023-03-15T08:32:24.055Z,20.17
2023-03-15T08:35:01.076Z,20.34
2023-03-15T08:37:33.638Z,20.53
2023-03-15T08:40:12.117Z,20.62
2023-03-15T08:42:42.376Z,20.82
2023-03-15T08:45:20.137Z,20.95
2023-03-15T08:47:50.148Z,21.16
2023-03-15T08:50:27.168Z,21.24
2023-03-15T08:53:00.412Z,21.31
2023-03-15T08:55:37.099Z,21.14
2023-03-15T08:58:07.999Z,21.28
2023-03-15T09:00:44.132Z,21.26
2023-03-15T09:03:16.024Z,20.99
2023-03-15T09:05:53.202Z,20.91
2023-03-15T09:08:26.368Z,21.04
2023-03-15T09:11:05.128Z,21.32
2023-03-15T09:13:35.454Z,21.38
2023-03-15T09:16:13.216Z,21.47
2023-03-15T09:18:44.276Z,21.20
2023-03-15T09:21:23.157Z,21.17
2023-03-15T09:24:02.324Z,21.14
2023-03-15T09:26:32.652Z,21.19
2023-03-15T09:29:09.156Z,21.16
2023-03-15T09:31:39.366Z,21.15
2023-03-15T09:34:16.220Z,21.25
2023-03-15T09:36:52.958Z,21.32
2023-03-15T09:39:33.158Z,21.50
2023-03-15T09:42:14.229Z,21.62
2023-03-15T09:44:52.521Z,21.61
2023-03-15T09:47:44.374Z,21.58
2023-03-15T09:50:25.456Z,21.18
2023-03-15T09:53:07.243Z,21.02
2023-03-15T09:55:46.233Z,20.71
2023-03-15T09:58:21.347Z,21.30
2023-03-15T10:01:02.268Z,21.50
2023-03-15T10:03:42.621Z,21.14
2023-03-15T10:06:26.310Z,21.36
2023-03-15T10:08:59.887Z,21.59
2023-03-15T10:11:52.268Z,21.69
2023-03-15T10:14:41.333Z,21.64
2023-03-15T10:17:16.149Z,21.82
2023-03-15T10:20:01.536Z,21.70
2023-03-15T10:22:37.745Z,21.67
2023-03-15T10:25:25.479Z,21.29
2023-03-15T10:28:04.304Z,21.24
2023-03-15T10:30:44.271Z,21.39
2023-03-15T10:33:27.237Z,21.34
2023-03-15T10:36:10.912Z,21.59
2023-03-15T10:38:42.905Z,21.57
2023-03-15T10:41:28.774Z,21.71
2023-03-15T10:44:06.125Z,21.60
2023-03-15T10:46:43.306Z,21.86
2023-03-15T10:49:17.634Z,21.30
2023-03-15T10:51:57.263Z,21.21
2023-03-15T10:54:27.604Z,21.17
2023-03-15T10:57:11.357Z,21.00
2023-03-15T11:00:00.229Z,21.02
2023-03-15T11:02:36.300Z,20.90
2023-03-15T11:05:19.458Z,20.62
2023-03-15T11:08:07.340Z,20.55
2023-03-15T11:10:38.347Z,20.65
2023-03-15T11:13:23.316Z,20.67
2023-03-15T11:16:12.368Z,20.70
2023-03-15T11:18:53.468Z,20.76
2023-03-15T11:21:35.431Z,20.94
2023-03-15T11:24:08.570Z,20.96
2023-03-15T11:26:48.410Z,20.99
2023-03-15T11:29:26.217Z,20.54
2023-03-15T11:32:06.353Z,20.72
2023-03-15T11:34:45.032Z,20.73
2023-03-15T11:37:28.397Z,20.79
2023-03-15T11:40:12.850Z,20.66
2023-03-15T11:42:52.122Z,20.22
2023-03-15T11:45:36.463Z,20.36
2023-03-15T11:48:19.434Z,20.41
2023-03-15T11:50:56.351Z,20.40
2023-03-15T11:53:30.095Z,20.28
2023-03-15T11:56:12.364Z,20.21
2023-03-15T11:58:45.550Z,19.93
2023-03-15T12:01:35.399Z,19.88
2023-03-15T12:04:46.706Z,19.44
2023-03-15T12:08:27.478Z,19.13
2023-03-15T12:10:57.817Z,19.30
2023-03-15T12:13:37.440Z,19.29
2023-03-15T12:16:09.865Z,19.36
2023-03-15T12:18:54.433Z,19.43
2023-03-15T12:21:34.348Z,19.21
2023-03-15T12:24:18.485Z,19.09
2023-03-15T12:26:51.400Z,18.70
2023-03-15T12:29:33.468Z,18.54
2023-03-15T12:32:14.251Z,18.31
2023-03-15T12:34:57.416Z,18.07
2023-03-15T12:37:40.907Z,17.72
2023-03-15T12:40:59.520Z,17.29
2023-03-15T12:43:41.750Z,17.48
2023-03-15T12:47:06.472Z,17.33
2023-03-15T12:49:42.810Z,17.33
2023-03-15T12:52:51.464Z,17.02
2023-03-15T12:55:21.986Z,16.67
2023-03-15T12:58:01.470Z,16.33
2023-03-15T13:00:34.093Z,15.77
2023-03-15T13:03:17.507Z,15.57
2023-03-15T13:06:04.262Z,15.60
2023-03-15T13:08:50.558Z,15.88
2023-03-15T13:11:26.047Z,15.79
2023-03-15T13:14:27.567Z,15.63
2023-03-15T13:17:07.127Z,15.60
2023-03-15T13:19:52.518Z,15.48
2023-03-15T13:22:36.011Z,15.43
2023-03-15T13:25:24.628Z,15.60
2023-03-15T13:28:05.537Z,15.69
2023-03-15T13:30:39.553Z,15.56
2023-03-15T13:33:27.496Z,15.59
2023-03-15T13:36:04.140Z,15.72
2023-03-15T13:38:44.515Z,15.62
2023-03-15T13:41:23.623Z,15.45
2023-03-15T13:44:02.552Z,15.38
2023-03-15T13:46:41.639Z,15.32
2023-03-15T13:49:15.032Z,15.11
2023-03-15T13:51:55.524Z,15.02
2023-03-15T13:54:30.472Z,15.00
2023-03-15T13:57:12.570Z,14.96
2023-03-15T13:59:47.876Z,14.88
